createdAt,value
2018-10-11T00:01:56.647Z,9.45
2018-10-11T00:04:25.681Z,9.47
2018-10-11T00:06:54.675Z,9.55
2018-10-11T00:09:23.442Z,9.49
2018-10-11T00:11:52.274Z,9.33
2018-10-11T00:14:21.185Z,9.46
2018-10-11T00:16:49.928Z,9.77
2018-10-11T00:19:18.541Z,9.96
2018-10-11T00:21:47.304Z,10.17
2018-10-11T00:24:16.127Z,10.12
2018-10-11T00:26:45.180Z,10.15
2018-10-11T00:29:14.031Z,10.14
2018-10-11T00:31:43.058Z,10.16
2018-10-11T00:34:12.011Z,9.99
2018-10-11T00:36:41.048Z,9.56
2018-10-11T00:39:10.292Z,9.65
2018-10-11T00:41:39.054Z,9.92
2018-10-11T00:44:07.724Z,9.83
2018-10-11T00:46:36.462Z,9.48
2018-10-11T00:49:05.139Z,9.23
2018-10-11T00:51:34.152Z,9.08
2018-10-11T00:54:03.074Z,9.15
2018-10-11T00:56:31.762Z,9.41
2018-10-11T00:59:00.640Z,9.42
2018-10-11T01:01:29.758Z,9.50
2018-10-11T01:03:58.670Z,9.67
2018-10-11T01:06:27.418Z,9.56
2018-10-11T01:08:56.244Z,9.84
2018-10-11T01:11:25.103Z,9.82
2018-10-11T01:13:54.020Z,9.77
2018-10-11T01:16:22.863Z,9.55
2018-10-11T01:18:51.807Z,9.27
2018-10-11T01:21:20.741Z,9.48
2018-10-11T01:23:49.795Z,9.66
2018-10-11T01:26:18.366Z,9.65
2018-10-11T01:28:47.315Z,9.39
2018-10-11T01:31:23.070Z,9.60
2018-10-11T01:33:52.568Z,9.59
2018-10-11T01:36:21.659Z,9.54
2018-10-11T01:38:52.025Z,9.34
2018-10-11T01:41:20.798Z,9.08
2018-10-11T01:43:49.573Z,9.09
2018-10-11T01:46:18.454Z,9.39
2018-10-11T01:48:47.620Z,9.29
2018-10-11T01:51:16.369Z,9.35
2018-10-11T01:53:45.389Z,8.67
2018-10-11T01:56:14.546Z,8.45
2018-10-11T01:58:43.496Z,8.81
2018-10-11T02:01:12.827Z,8.85
2018-10-11T02:03:41.807Z,9.05
2018-10-11T02:06:10.783Z,8.71
2018-10-11T02:08:39.725Z,8.85
2018-10-11T02:11:08.829Z,9.05
2018-10-11T02:13:37.479Z,8.87
2018-10-11T02:16:06.220Z,8.63
2018-10-11T02:18:35.121Z,8.66
2018-10-11T02:21:03.927Z,8.65
2018-10-11T02:23:32.712Z,8.52
2018-10-11T02:26:01.633Z,8.53
2018-10-11T02:28:30.283Z,8.55
2018-10-11T02:30:59.256Z,8.27
2018-10-11T02:33:28.482Z,8.09
2018-10-11T02:35:57.735Z,8.06
2018-10-11T02:38:26.553Z,8.01
2018-10-11T02:40:55.391Z,7.96
2018-10-11T02:43:24.303Z,8.12
2018-10-11T02:45:52.942Z,8.19
2018-10-11T02:48:21.883Z,8.34
2018-10-11T02:50:50.850Z,8.13
2018-10-11T02:53:19.629Z,7.84
2018-10-11T02:55:48.804Z,7.72
2018-10-11T02:58:28.568Z,7.73
2018-10-11T03:00:57.510Z,7.65
2018-10-11T03:03:29.006Z,7.72
2018-10-11T03:06:00.552Z,7.58
2018-10-11T03:08:29.866Z,7.69
2018-10-11T03:10:59.007Z,7.66
2018-10-11T03:13:27.624Z,7.70
2018-10-11T03:15:56.360Z,7.90
2018-10-11T03:18:25.515Z,7.82
2018-10-11T03:20:54.240Z,7.63
2018-10-11T03:23:22.884Z,7.58
2018-10-11T03:25:51.791Z,7.52
2018-10-11T03:28:20.731Z,7.70
2018-10-11T03:30:49.685Z,7.61
2018-10-11T03:33:18.578Z,7.61
2018-10-11T03:35:47.411Z,7.91
2018-10-11T03:38:16.205Z,7.90
2018-10-11T03:40:45.000Z,8.01
2018-10-11T03:43:13.728Z,7.79
2018-10-11T03:45:42.314Z,7.74
2018-10-11T03:48:11.389Z,7.98
2018-10-11T03:50:40.312Z,8.05
2018-10-11T03:53:09.119Z,8.10
2018-10-11T03:55:38.295Z,8.34
2018-10-11T03:58:06.981Z,8.31
2018-10-11T04:00:36.322Z,7.79
2018-10-11T04:03:05.182Z,7.70
2018-10-11T04:05:33.964Z,7.60
2018-10-11T04:08:03.601Z,7.54
2018-10-11T04:10:32.306Z,7.49
2018-10-11T04:13:01.384Z,7.58
2018-10-11T04:15:30.170Z,7.80
2018-10-11T04:17:59.039Z,7.83
2018-10-11T04:20:28.103Z,7.84
2018-10-11T04:22:57.199Z,7.60
2018-10-11T04:25:26.700Z,7.57
2018-10-11T04:27:55.503Z,7.78
2018-10-11T04:30:25.106Z,7.89
2018-10-11T04:32:54.231Z,7.71
2018-10-11T04:35:23.155Z,7.95
2018-10-11T04:37:51.846Z,8.19
2018-10-11T04:40:20.675Z,8.16
2018-10-11T04:42:49.592Z,8.36
2018-10-11T04:45:18.250Z,8.38
2018-10-11T04:47:47.098Z,8.41
2018-10-11T04:50:16.164Z,8.27
2018-10-11T04:52:44.980Z,8.44
2018-10-11T04:55:13.933Z,8.52
2018-10-11T04:57:42.978Z,8.60
2018-10-11T05:00:11.728Z,8.68
2018-10-11T05:02:40.255Z,8.81
2018-10-11T05:05:09.595Z,8.92
2018-10-11T05:07:38.611Z,8.88
2018-10-11T05:10:07.429Z,8.82
2018-10-11T05:12:36.229Z,8.67
2018-10-11T05:15:05.145Z,8.70
2018-10-11T05:17:34.699Z,8.82
2018-10-11T05:20:03.533Z,9.06
2018-10-11T05:22:32.249Z,8.94
2018-10-11T05:25:01.184Z,8.94
2018-10-11T05:27:30.046Z,9.00
2018-10-11T05:29:58.975Z,9.04
2018-10-11T05:32:28.261Z,9.09
2018-10-11T05:34:57.075Z,9.23
2018-10-11T05:37:25.715Z,9.39
2018-10-11T05:39:54.623Z,9.55
2018-10-11T05:42:23.466Z,9.66
2018-10-11T05:44:52.785Z,9.78
2018-10-11T05:47:21.919Z,9.87
2018-10-11T05:49:50.993Z,10.03
2018-10-11T05:52:19.719Z,10.26
2018-10-11T05:54:48.810Z,10.44
2018-10-11T05:57:17.771Z,10.63
2018-10-11T05:59:46.723Z,10.77
2018-10-11T06:02:15.692Z,10.92
2018-10-11T06:04:44.963Z,11.09
2018-10-11T06:07:13.961Z,11.20
2018-10-11T06:09:42.740Z,11.32
2018-10-11T06:12:11.532Z,11.46
2018-10-11T06:14:40.487Z,11.67
2018-10-11T06:17:09.730Z,11.89
2018-10-11T06:19:38.692Z,11.93
2018-10-11T06:22:07.939Z,12.00
2018-10-11T06:24:37.045Z,12.08
2018-10-11T06:27:06.147Z,12.15
2018-10-11T06:29:35.539Z,12.21
2018-10-11T06:32:04.234Z,12.32
2018-10-11T06:34:33.387Z,12.51
2018-10-11T06:37:03.284Z,12.64
2018-10-11T06:39:32.062Z,12.73
2018-10-11T06:42:00.686Z,12.77
2018-10-11T06:44:30.011Z,12.83
2018-10-11T06:46:59.083Z,13.04
2018-10-11T06:49:27.895Z,13.12
2018-10-11T06:51:57.092Z,13.23
2018-10-11T06:54:25.950Z,13.38
2018-10-11T06:56:55.059Z,13.46
2018-10-11T06:59:23.883Z,13.75
2018-10-11T07:01:52.978Z,13.92
2018-10-11T07:04:22.058Z,13.95
2018-10-11T07:06:51.141Z,14.03
2018-10-11T07:09:19.852Z,13.89
2018-10-11T07:11:48.538Z,13.96
2018-10-11T07:14:17.248Z,14.25
2018-10-11T07:16:46.011Z,14.22
2018-10-11T07:19:14.629Z,14.41
2018-10-11T07:21:43.532Z,14.50
2018-10-11T07:24:12.198Z,14.44
2018-10-11T07:26:40.875Z,14.53
2018-10-11T07:29:09.858Z,14.68
2018-10-11T07:31:38.721Z,14.68
2018-10-11T07:34:07.639Z,14.89
2018-10-11T07:36:36.326Z,14.94
2018-10-11T07:39:08.157Z,15.00
2018-10-11T07:41:37.157Z,15.03
2018-10-11T07:44:06.442Z,15.11
2018-10-11T07:46:35.554Z,15.26
2018-10-11T07:49:05.952Z,15.26
2018-10-11T07:51:34.823Z,15.38
2018-10-11T07:54:03.865Z,15.60
2018-10-11T07:56:34.061Z,15.73
2018-10-11T07:59:03.005Z,15.79
2018-10-11T08:01:32.219Z,16.12
2018-10-11T08:04:01.507Z,16.13
2018-10-11T08:06:30.280Z,16.18
2018-10-11T08:08:59.129Z,15.87
2018-10-11T08:11:28.575Z,16.44
2018-10-11T08:13:57.253Z,16.63
2018-10-11T08:16:26.362Z,16.85
2018-10-11T08:18:55.971Z,16.92
2018-10-11T08:21:24.955Z,16.99
2018-10-11T08:23:53.883Z,17.09
2018-10-11T08:26:23.138Z,17.20
2018-10-11T08:28:51.840Z,17.51
2018-10-11T08:31:20.775Z,17.45
2018-10-11T08:33:49.816Z,17.65
2018-10-11T08:36:18.450Z,17.73
2018-10-11T08:38:47.263Z,17.81
2018-10-11T08:41:16.376Z,17.78
2018-10-11T08:43:45.312Z,18.02
2018-10-11T08:46:14.802Z,18.13
2018-10-11T08:48:44.109Z,18.24
2018-10-11T08:51:12.859Z,18.24
2018-10-11T08:53:41.813Z,18.44
2018-10-11T08:56:10.883Z,18.50
2018-10-11T08:58:39.866Z,18.46
2018-10-11T09:01:08.859Z,18.53
2018-10-11T09:03:38.081Z,18.66
2018-10-11T09:06:06.727Z,18.76
2018-10-11T09:08:35.321Z,18.97
2018-10-11T09:11:04.266Z,19.04
2018-10-11T09:13:33.098Z,19.35
2018-10-11T09:16:02.010Z,19.59
2018-10-11T09:18:31.318Z,19.86
2018-10-11T09:21:00.070Z,20.04
2018-10-11T09:23:28.931Z,20.43
2018-10-11T09:25:58.208Z,20.94
2018-10-11T09:28:27.165Z,20.81
2018-10-11T09:30:56.157Z,20.94
2018-10-11T09:33:25.573Z,21.35
2018-10-11T09:35:54.232Z,21.53
2018-10-11T09:38:23.004Z,21.90
2018-10-11T09:40:51.784Z,22.29
2018-10-11T09:43:20.725Z,22.54
2018-10-11T09:45:49.767Z,22.31
2018-10-11T09:48:18.938Z,22.77
2018-10-11T09:50:47.779Z,22.94
2018-10-11T09:53:16.855Z,23.32
2018-10-11T09:55:46.040Z,23.44
2018-10-11T09:58:14.970Z,23.43
2018-10-11T10:00:49.354Z,23.48
2018-10-11T10:03:18.519Z,23.88
2018-10-11T10:05:47.229Z,24.22
2018-10-11T10:08:16.124Z,24.26
2018-10-11T10:10:44.858Z,24.63
2018-10-11T10:13:13.741Z,24.90
2018-10-11T10:15:42.801Z,25.26
2018-10-11T10:18:11.854Z,25.33
2018-10-11T10:20:40.887Z,25.57
2018-10-11T10:23:09.654Z,25.86
2018-10-11T10:25:38.486Z,25.91
2018-10-11T10:28:07.363Z,26.19
2018-10-11T10:30:41.571Z,26.14
2018-10-11T10:33:10.758Z,25.99
2018-10-11T10:35:39.495Z,26.10
2018-10-11T10:38:08.356Z,26.35
2018-10-11T10:40:37.331Z,26.28
2018-10-11T10:43:06.036Z,26.44
2018-10-11T10:45:34.740Z,26.24
2018-10-11T10:48:04.709Z,25.51
2018-10-11T10:50:33.591Z,24.87
2018-10-11T10:53:02.370Z,24.93
2018-10-11T10:55:31.610Z,24.70
2018-10-11T10:58:00.543Z,24.78
2018-10-11T11:00:29.483Z,24.65
2018-10-11T11:02:58.502Z,24.61
2018-10-11T11:05:27.307Z,24.66
2018-10-11T11:07:56.050Z,24.31
2018-10-11T11:10:25.475Z,24.32
2018-10-11T11:12:54.653Z,24.32
2018-10-11T11:15:23.813Z,23.92
2018-10-11T11:17:52.488Z,23.88
2018-10-11T11:20:21.489Z,23.82
2018-10-11T11:22:50.427Z,23.80
2018-10-11T11:25:19.554Z,23.49
2018-10-11T11:27:48.336Z,23.40
2018-10-11T11:30:17.484Z,23.25
2018-10-11T11:32:46.218Z,23.11
2018-10-11T11:35:15.054Z,23.18
2018-10-11T11:37:43.728Z,23.08
2018-10-11T11:40:12.595Z,23.37
2018-10-11T11:42:41.503Z,23.44
2018-10-11T11:45:10.347Z,23.69
2018-10-11T11:47:39.362Z,23.67
2018-10-11T11:50:08.471Z,23.44
2018-10-11T11:52:37.591Z,23.72
2018-10-11T11:55:06.663Z,23.35
2018-10-11T11:57:35.603Z,23.00
2018-10-11T12:00:04.827Z,22.83
2018-10-11T12:02:33.549Z,22.18
2018-10-11T12:05:02.263Z,22.14
2018-10-11T12:07:31.940Z,22.36
2018-10-11T12:10:00.677Z,22.45
2018-10-11T12:13:07.286Z,22.36
2018-10-11T12:15:36.676Z,21.87
2018-10-11T12:18:06.486Z,22.09
2018-10-11T12:20:36.748Z,22.27
2018-10-11T12:23:06.730Z,22.35
2018-10-11T12:25:35.732Z,22.44
2018-10-11T12:28:04.726Z,22.45
2018-10-11T12:30:34.020Z,22.31
2018-10-11T12:33:02.791Z,22.28
2018-10-11T12:35:31.926Z,22.02
2018-10-11T12:38:01.313Z,22.14
2018-10-11T12:40:30.363Z,22.32
2018-10-11T12:42:59.359Z,22.39
2018-10-11T12:45:28.241Z,22.65
2018-10-11T12:47:56.978Z,22.94
2018-10-11T12:50:25.779Z,23.42
2018-10-11T12:52:54.741Z,23.71
2018-10-11T12:55:23.908Z,23.60
2018-10-11T12:57:53.159Z,23.81
2018-10-11T13:00:22.052Z,24.01
2018-10-11T13:02:50.987Z,24.24
2018-10-11T13:05:19.659Z,24.07
2018-10-11T13:07:48.760Z,24.28
2018-10-11T13:10:17.891Z,24.37
2018-10-11T13:12:46.767Z,24.77
2018-10-11T13:15:16.067Z,25.27
2018-10-11T13:17:44.920Z,25.43
2018-10-11T13:20:13.804Z,25.13
2018-10-11T13:22:42.702Z,25.08
2018-10-11T13:25:11.710Z,24.87
2018-10-11T13:27:40.730Z,24.96
2018-10-11T13:30:10.143Z,24.53
2018-10-11T13:32:38.801Z,24.21
2018-10-11T13:35:08.323Z,24.21
2018-10-11T13:37:37.000Z,24.24
2018-10-11T13:40:05.685Z,24.05
2018-10-11T13:42:34.436Z,23.64
2018-10-11T13:45:03.495Z,23.24
2018-10-11T13:47:35.294Z,23.49
2018-10-11T13:50:01.358Z,23.68
2018-10-11T13:52:30.160Z,23.66
2018-10-11T13:54:59.243Z,24.09
2018-10-11T13:57:31.125Z,24.45
2018-10-11T13:59:56.891Z,24.49
2018-10-11T14:02:25.553Z,24.67
2018-10-11T14:04:54.267Z,24.31
2018-10-11T14:07:23.193Z,24.02
2018-10-11T14:09:52.127Z,23.55
2018-10-11T14:12:20.981Z,23.67
2018-10-11T14:14:49.669Z,23.43
2018-10-11T14:17:18.607Z,23.45
2018-10-11T14:19:47.506Z,23.38
2018-10-11T14:22:16.578Z,23.36
2018-10-11T14:24:45.594Z,22.94
2018-10-11T14:27:14.500Z,22.48
2018-10-11T14:29:43.257Z,22.38
2018-10-11T14:32:12.061Z,22.35
2018-10-11T14:34:40.716Z,22.35
2018-10-11T14:37:09.846Z,22.33
2018-10-11T14:39:38.747Z,22.08
2018-10-11T14:42:07.879Z,21.90
2018-10-11T14:44:36.885Z,21.87
2018-10-11T14:47:06.016Z,21.88
2018-10-11T14:49:34.901Z,21.31
2018-10-11T14:52:03.937Z,20.77
2018-10-11T14:54:35.197Z,20.83
2018-10-11T14:57:05.471Z,20.88
2018-10-11T14:59:34.303Z,20.65
2018-10-11T15:02:02.961Z,20.40
2018-10-11T15:04:32.063Z,20.47
2018-10-11T15:07:00.882Z,20.49
2018-10-11T15:09:29.944Z,20.62
2018-10-11T15:11:59.181Z,20.52
2018-10-11T15:14:28.243Z,20.53
2018-10-11T15:16:57.910Z,20.58
2018-10-11T15:19:26.907Z,20.55
2018-10-11T15:21:56.040Z,20.51
2018-10-11T15:24:24.807Z,20.20
2018-10-11T15:26:53.863Z,20.28
2018-10-11T15:29:22.709Z,20.11
2018-10-11T15:31:51.479Z,20.01
2018-10-11T15:34:20.294Z,19.84
2018-10-11T15:36:49.347Z,19.29
2018-10-11T15:39:18.287Z,19.00
2018-10-11T15:41:47.319Z,19.12
2018-10-11T15:44:16.167Z,18.99
2018-10-11T15:46:45.038Z,18.84
2018-10-11T15:49:13.928Z,18.61
2018-10-11T15:51:43.076Z,18.50
2018-10-11T15:54:12.085Z,18.50
2018-10-11T15:56:40.826Z,18.32
2018-10-11T15:59:09.628Z,18.15
2018-10-11T16:01:38.357Z,18.06
2018-10-11T16:04:07.199Z,17.98
2018-10-11T16:06:36.078Z,17.83
2018-10-11T16:09:06.545Z,17.63
2018-10-11T16:11:35.416Z,17.64
2018-10-11T16:14:04.281Z,17.57
2018-10-11T16:16:33.681Z,17.53
2018-10-11T16:19:02.600Z,17.43
2018-10-11T16:21:31.751Z,17.35
2018-10-11T16:24:00.592Z,17.23
2018-10-11T16:26:29.598Z,17.15
2018-10-11T16:28:58.515Z,17.03
2018-10-11T16:31:27.304Z,16.96
2018-10-11T16:33:56.309Z,16.96
2018-10-11T16:36:25.455Z,16.86
2018-10-11T16:38:54.040Z,16.80
2018-10-11T16:41:23.412Z,16.83
2018-10-11T16:43:52.354Z,16.76
2018-10-11T16:46:21.170Z,16.83
2018-10-11T16:48:49.911Z,16.81
2018-10-11T16:51:18.724Z,16.78
2018-10-11T16:53:47.800Z,16.88
2018-10-11T16:56:16.598Z,16.94
2018-10-11T16:58:45.374Z,17.00
2018-10-11T17:01:14.102Z,16.99
2018-10-11T17:03:43.094Z,16.93
2018-10-11T17:06:12.067Z,16.83
2018-10-11T17:08:41.296Z,16.82
2018-10-11T17:11:10.344Z,16.77
2018-10-11T17:13:39.115Z,16.72
2018-10-11T17:16:08.036Z,16.61
2018-10-11T17:18:36.777Z,16.61
2018-10-11T17:21:05.866Z,16.62
2018-10-11T17:23:34.752Z,16.64
2018-10-11T17:26:03.462Z,16.68
2018-10-11T17:28:32.150Z,16.68
2018-10-11T17:31:01.174Z,16.65
2018-10-11T17:33:30.097Z,16.60
2018-10-11T17:35:59.167Z,16.58
2018-10-11T17:38:27.870Z,16.48
2018-10-11T17:40:56.842Z,16.57
2018-10-11T17:43:25.909Z,16.64
2018-10-11T17:45:54.711Z,16.57
2018-10-11T17:48:24.019Z,16.57
2018-10-11T17:50:52.892Z,16.51
2018-10-11T17:53:21.748Z,16.41
2018-10-11T17:55:50.978Z,16.41
2018-10-11T17:58:19.906Z,16.39
2018-10-11T18:00:48.803Z,16.33
2018-10-11T18:03:18.354Z,16.31
2018-10-11T18:05:47.386Z,16.22
2018-10-11T18:08:16.896Z,16.14
2018-10-11T18:10:46.060Z,16.11
2018-10-11T18:13:15.148Z,16.02
2018-10-11T18:15:44.194Z,15.99
2018-10-11T18:18:13.722Z,15.98
2018-10-11T18:20:42.583Z,15.89
2018-10-11T18:23:11.421Z,15.85
2018-10-11T18:25:40.099Z,15.77
2018-10-11T18:28:08.831Z,15.78
2018-10-11T18:30:37.492Z,15.77
2018-10-11T18:33:06.318Z,15.70
2018-10-11T18:35:35.400Z,15.64
2018-10-11T18:38:04.146Z,15.54
2018-10-11T18:40:33.039Z,15.55
2018-10-11T18:43:01.903Z,15.45
2018-10-11T18:45:30.819Z,15.45
2018-10-11T18:47:59.994Z,15.42
2018-10-11T18:50:28.835Z,15.47
2018-10-11T18:52:57.827Z,15.35
2018-10-11T18:55:26.498Z,15.66
2018-10-11T18:57:55.237Z,15.66
2018-10-11T19:00:24.006Z,15.60
2018-10-11T19:02:53.132Z,15.61
2018-10-11T19:05:22.176Z,15.55
2018-10-11T19:07:50.990Z,15.50
2018-10-11T19:10:19.840Z,15.48
2018-10-11T19:12:48.579Z,15.32
2018-10-11T19:15:17.459Z,15.30
2018-10-11T19:17:46.378Z,15.36
2018-10-11T19:20:15.279Z,15.41
2018-10-11T19:22:44.367Z,15.46
2018-10-11T19:25:13.102Z,15.49
2018-10-11T19:27:41.903Z,15.41
2018-10-11T19:30:10.633Z,15.28
2018-10-11T19:32:39.551Z,15.15
2018-10-11T19:35:08.651Z,15.20
2018-10-11T19:37:37.450Z,15.40
2018-10-11T19:40:06.249Z,15.40
2018-10-11T19:42:35.111Z,15.51
2018-10-11T19:45:03.958Z,15.56
2018-10-11T19:47:33.025Z,15.66
2018-10-11T19:50:01.940Z,15.71
2018-10-11T19:52:30.813Z,15.75
2018-10-11T19:54:59.572Z,15.78
2018-10-11T19:57:28.327Z,15.84
2018-10-11T19:59:56.961Z,15.85
2018-10-11T20:02:25.665Z,15.89
2018-10-11T20:04:54.635Z,15.89
2018-10-11T20:07:23.763Z,15.77
2018-10-11T20:09:52.799Z,15.90
2018-10-11T20:12:21.597Z,15.91
2018-10-11T20:14:50.942Z,15.85
2018-10-11T20:17:19.878Z,15.93
2018-10-11T20:19:48.684Z,15.89
2018-10-11T20:22:17.776Z,15.94
2018-10-11T20:24:46.627Z,16.00
2018-10-11T20:27:15.421Z,16.08
2018-10-11T20:29:44.154Z,16.10
2018-10-11T20:32:13.089Z,16.03
2018-10-11T20:34:41.918Z,16.06
2018-10-11T20:37:10.945Z,16.05
2018-10-11T20:39:39.548Z,15.92
2018-10-11T20:42:08.636Z,15.84
2018-10-11T20:44:37.532Z,16.02
2018-10-11T20:47:06.535Z,16.07
2018-10-11T20:49:35.167Z,15.90
2018-10-11T20:52:04.030Z,15.60
2018-10-11T20:54:32.985Z,15.53
2018-10-11T20:57:01.582Z,15.46
2018-10-11T20:59:30.283Z,15.28
2018-10-11T21:01:59.355Z,15.06
2018-10-11T21:04:28.144Z,14.88
2018-10-11T21:06:57.240Z,15.05
2018-10-11T21:09:26.265Z,15.05
2018-10-11T21:11:55.203Z,14.99
2018-10-11T21:14:24.274Z,15.00
2018-10-11T21:16:53.069Z,14.82
2018-10-11T21:19:21.819Z,14.91
2018-10-11T21:21:50.526Z,14.88
2018-10-11T21:24:19.659Z,14.79
2018-10-11T21:26:48.386Z,15.06
2018-10-11T21:29:17.068Z,15.20
2018-10-11T21:31:46.016Z,15.24
2018-10-11T21:34:15.116Z,15.26
2018-10-11T21:36:43.867Z,15.39
2018-10-11T21:39:13.551Z,15.45
2018-10-11T21:41:42.607Z,15.50
2018-10-11T21:44:11.515Z,15.47
2018-10-11T21:46:40.505Z,15.43
2018-10-11T21:49:09.532Z,15.42
2018-10-11T21:51:38.525Z,15.42
2018-10-11T21:54:07.258Z,15.43
2018-10-11T21:56:35.983Z,15.45
2018-10-11T21:59:04.939Z,15.43
2018-10-11T22:01:33.786Z,15.42
2018-10-11T22:04:02.586Z,15.39
2018-10-11T22:06:31.463Z,15.36
2018-10-11T22:09:00.203Z,15.32
2018-10-11T22:11:28.924Z,15.26
2018-10-11T22:13:57.866Z,15.17
2018-10-11T22:16:26.776Z,15.16
2018-10-11T22:18:55.564Z,15.20
2018-10-11T22:21:24.266Z,15.19
2018-10-11T22:23:53.543Z,15.16
2018-10-11T22:26:22.232Z,15.16
2018-10-11T22:28:50.878Z,15.09
2018-10-11T22:31:19.855Z,15.12
2018-10-11T22:33:48.806Z,15.09
2018-10-11T22:36:17.427Z,15.03
2018-10-11T22:38:46.306Z,14.57
2018-10-11T22:41:15.494Z,14.85
2018-10-11T22:43:44.669Z,14.89
2018-10-11T22:46:13.959Z,14.90
2018-10-11T22:48:43.328Z,14.86
2018-10-11T22:51:12.618Z,14.79
2018-10-11T22:53:41.780Z,14.67
2018-10-11T22:56:10.550Z,14.62
2018-10-11T22:58:39.655Z,14.59
2018-10-11T23:01:08.595Z,14.54
2018-10-11T23:03:37.582Z,14.50
2018-10-11T23:06:06.644Z,14.47
2018-10-11T23:08:35.889Z,14.35
2018-10-11T23:11:04.724Z,14.25
2018-10-11T23:13:33.527Z,14.16
2018-10-11T23:16:02.568Z,14.08
2018-10-11T23:18:31.571Z,13.96
2018-10-11T23:21:00.221Z,13.83
2018-10-11T23:23:29.028Z,13.76
2018-10-11T23:25:57.750Z,13.62
2018-10-11T23:28:26.570Z,13.53
2018-10-11T23:30:55.614Z,13.47
2018-10-11T23:33:24.566Z,13.38
2018-10-11T23:35:53.505Z,13.30
2018-10-11T23:38:22.531Z,13.27
2018-10-11T23:40:51.699Z,13.14
2018-10-11T23:43:20.544Z,12.93
2018-10-11T23:45:49.486Z,12.82
2018-10-11T23:48:18.289Z,13.03
2018-10-11T23:50:47.528Z,13.09
2018-10-11T23:53:16.282Z,13.13
2018-10-11T23:55:45.009Z,12.92
2018-10-11T23:58:13.842Z,12.95
